sensor_id;sensor_type;location;lat;lon;timestamp;pressure;altitude;pressure_sealevel;temperature;humidity
63009;BME280;49099;28.428;-16.488;2023-02-18T00:01:28;98586.41;;;16.90;59.98
63009;BME280;49099;28.428;-16.488;2023-02-18T00:03:58;98598.09;;;16.94;60.19
63009;BME280;49099;28.428;-16.488;2023-02-18T00:06:27;98589.56;;;16.92;59.89
63009;BME280;49099;28.428;-16.488;2023-02-18T00:08:56;98595.56;;;16.89;60.16
63009;BME280;49099;28.428;-16.488;2023-02-18T00:11:25;98593.94;;;16.88;60.08
63009;BME280;49099;28.428;-16.488;2023-02-18T00:13:56;98588.31;;;16.90;60.34
63009;BME280;49099;28.428;-16.488;2023-02-18T00:16:25;98591.25;;;16.88;59.87
63009;BME280;49099;28.428;-16.488;2023-02-18T00:19:00;98581.84;;;16.91;59.61
63009;BME280;49099;28.428;-16.488;2023-02-18T00:21:29;98585.63;;;16.90;59.38
63009;BME280;49099;28.428;-16.488;2023-02-18T00:23:56;98581.16;;;16.85;59.61
63009;BME280;49099;28.428;-16.488;2023-02-18T00:26:23;98584.94;;;16.84;59.46
63009;BME280;49099;28.428;-16.488;2023-02-18T00:28:50;98587.63;;;16.84;59.45
63009;BME280;49099;28.428;-16.488;2023-02-18T00:31:27;98584.63;;;16.86;59.64
63009;BME280;49099;28.428;-16.488;2023-02-18T00:33:56;98578.47;;;16.85;59.73
63009;BME280;49099;28.428;-16.488;2023-02-18T00:36:24;98577.53;;;16.81;59.72
63009;BME280;49099;28.428;-16.488;2023-02-18T00:38:55;98581.25;;;16.80;59.73
63009;BME280;49099;28.428;-16.488;2023-02-18T00:41:24;98580.69;;;16.83;59.90
63009;BME280;49099;28.428;-16.488;2023-02-18T00:43:52;98575.81;;;16.85;59.47
63009;BME280;49099;28.428;-16.488;2023-02-18T00:46:20;98585.31;;;16.91;59.38
63009;BME280;49099;28.428;-16.488;2023-02-18T00:48:48;98581.53;;;16.92;59.12
63009;BME280;49099;28.428;-16.488;2023-02-18T00:51:15;98592.16;;;16.97;59.07
63009;BME280;49099;28.428;-16.488;2023-02-18T00:53:43;98590.75;;;17.00;59.18
63009;BME280;49099;28.428;-16.488;2023-02-18T00:56:10;98589.34;;;17.03;58.73
63009;BME280;49099;28.428;-16.488;2023-02-18T00:58:38;98595.47;;;17.03;59.50
63009;BME280;49099;28.428;-16.488;2023-02-18T01:01:07;98591.84;;;16.99;60.87
63009;BME280;49099;28.428;-16.488;2023-02-18T01:03:35;98592.94;;;16.98;61.48
63009;BME280;49099;28.428;-16.488;2023-02-18T01:06:04;98595.31;;;16.99;61.39
63009;BME280;49099;28.428;-16.488;2023-02-18T01:08:32;98590.25;;;16.98;61.58
63009;BME280;49099;28.428;-16.488;2023-02-18T01:11:00;98583.19;;;17.02;61.47
63009;BME280;49099;28.428;-16.488;2023-02-18T01:13:28;98590.31;;;17.07;61.52
63009;BME280;49099;28.428;-16.488;2023-02-18T01:15:55;98587.16;;;17.05;61.34
63009;BME280;49099;28.428;-16.488;2023-02-18T01:18:24;98586.97;;;17.01;61.21
63009;BME280;49099;28.428;-16.488;2023-02-18T01:20:52;98580.81;;;17.01;61.28
63009;BME280;49099;28.428;-16.488;2023-02-18T01:23:19;98576.25;;;17.01;61.26
63009;BME280;49099;28.428;-16.488;2023-02-18T01:25:47;98574.97;;;16.98;61.44
63009;BME280;49099;28.428;-16.488;2023-02-18T01:28:15;98576.06;;;16.97;61.51
63009;BME280;49099;28.428;-16.488;2023-02-18T01:30:43;98565.94;;;16.94;61.48
63009;BME280;49099;28.428;-16.488;2023-02-18T01:33:10;98575.09;;;16.93;61.73
63009;BME280;49099;28.428;-16.488;2023-02-18T01:35:39;98580.03;;;17.00;61.67
63009;BME280;49099;28.428;-16.488;2023-02-18T01:38:07;98566.63;;;17.00;60.97
63009;BME280;49099;28.428;-16.488;2023-02-18T01:40:36;98570.56;;;17.03;61.07
63009;BME280;49099;28.428;-16.488;2023-02-18T01:43:11;98571.69;;;17.02;60.84
63009;BME280;49099;28.428;-16.488;2023-02-18T01:48:56;98562.38;;;16.99;61.26
63009;BME280;49099;28.428;-16.488;2023-02-18T01:51:29;98569.72;;;16.93;61.59
63009;BME280;49099;28.428;-16.488;2023-02-18T01:54:02;98569.72;;;16.93;62.21
63009;BME280;49099;28.428;-16.488;2023-02-18T01:56:53;98565.47;;;16.92;63.06
63009;BME280;49099;28.428;-16.488;2023-02-18T01:59:25;98564.47;;;16.88;63.52
63009;BME280;49099;28.428;-16.488;2023-02-18T02:01:54;98557.06;;;16.85;64.20
63009;BME280;49099;28.428;-16.488;2023-02-18T02:04:22;98545.38;;;16.81;65.05
63009;BME280;49099;28.428;-16.488;2023-02-18T02:06:49;98551.06;;;16.88;64.93
63009;BME280;49099;28.428;-16.488;2023-02-18T02:09:18;98548.91;;;16.90;64.71
63009;BME280;49099;28.428;-16.488;2023-02-18T02:12:09;98546.72;;;16.92;64.61
63009;BME280;49099;28.428;-16.488;2023-02-18T02:37:33;98542.75;;;16.90;62.67
63009;BME280;49099;28.428;-16.488;2023-02-18T02:42:45;98535.63;;;16.85;63.23
63009;BME280;49099;28.428;-16.488;2023-02-18T02:50:48;98527.09;;;16.83;64.86
63009;BME280;49099;28.428;-16.488;2023-02-18T02:53:23;98529.16;;;16.86;64.86
63009;BME280;49099;28.428;-16.488;2023-02-18T02:55:53;98522.59;;;16.92;64.49
63009;BME280;49099;28.428;-16.488;2023-02-18T02:58:22;98529.44;;;16.98;64.35
63009;BME280;49099;28.428;-16.488;2023-02-18T03:09:42;98539.34;;;16.98;72.06
63009;BME280;49099;28.428;-16.488;2023-02-18T03:12:29;98540.94;;;16.99;71.30
63009;BME280;49099;28.428;-16.488;2023-02-18T03:15:15;98538.69;;;16.92;73.94
63009;BME280;49099;28.428;-16.488;2023-02-18T03:17:58;98541.78;;;16.86;74.57
63009;BME280;49099;28.428;-16.488;2023-02-18T03:20:32;98533.56;;;16.82;74.02
63009;BME280;49099;28.428;-16.488;2023-02-18T03:23:08;98535.13;;;16.83;75.04
63009;BME280;49099;28.428;-16.488;2023-02-18T03:25:38;98528.00;;;16.79;75.01
63009;BME280;49099;28.428;-16.488;2023-02-18T03:28:08;98526.25;;;16.74;75.41
63009;BME280;49099;28.428;-16.488;2023-02-18T03:33:14;98523.19;;;16.53;76.26
63009;BME280;49099;28.428;-16.488;2023-02-18T03:35:43;98531.94;;;16.45;76.26
63009;BME280;49099;28.428;-16.488;2023-02-18T03:38:27;98517.06;;;16.39;75.78
63009;BME280;49099;28.428;-16.488;2023-02-18T03:40:55;98522.75;;;16.37;75.00
63009;BME280;49099;28.428;-16.488;2023-02-18T03:43:23;98521.34;;;16.40;73.65
63009;BME280;49099;28.428;-16.488;2023-02-18T03:45:51;98523.22;;;16.39;73.83
63009;BME280;49099;28.428;-16.488;2023-02-18T03:48:18;98523.59;;;16.47;72.78
63009;BME280;49099;28.428;-16.488;2023-02-18T03:50:45;98523.44;;;16.43;72.27
63009;BME280;49099;28.428;-16.488;2023-02-18T03:53:12;98519.66;;;16.44;71.63
63009;BME280;49099;28.428;-16.488;2023-02-18T03:55:39;98520.53;;;16.39;72.12
63009;BME280;49099;28.428;-16.488;2023-02-18T03:58:07;98514.81;;;16.32;72.27
63009;BME280;49099;28.428;-16.488;2023-02-18T04:00:34;98507.00;;;16.22;72.26
63009;BME280;49099;28.428;-16.488;2023-02-18T04:03:01;98501.47;;;16.19;71.78
63009;BME280;49099;28.428;-16.488;2023-02-18T04:05:28;98494.03;;;16.15;70.80
63009;BME280;49099;28.428;-16.488;2023-02-18T04:07:55;98497.50;;;16.16;70.46
63009;BME280;49099;28.428;-16.488;2023-02-18T04:10:22;98490.16;;;16.22;70.25
63009;BME280;49099;28.428;-16.488;2023-02-18T04:12:50;98494.72;;;16.21;70.09
63009;BME280;49099;28.428;-16.488;2023-02-18T04:15:17;98501.66;;;16.22;70.26
63009;BME280;49099;28.428;-16.488;2023-02-18T04:17:44;98504.63;;;16.21;69.72
63009;BME280;49099;28.428;-16.488;2023-02-18T04:20:11;98504.41;;;16.17;70.39
63009;BME280;49099;28.428;-16.488;2023-02-18T04:22:38;98506.53;;;16.20;70.20
63009;BME280;49099;28.428;-16.488;2023-02-18T04:25:06;98511.75;;;16.25;69.55
63009;BME280;49099;28.428;-16.488;2023-02-18T04:27:33;98512.75;;;16.29;68.99
63009;BME280;49099;28.428;-16.488;2023-02-18T04:30:01;98508.34;;;16.33;69.23
63009;BME280;49099;28.428;-16.488;2023-02-18T04:32:28;98513.72;;;16.33;68.84
63009;BME280;49099;28.428;-16.488;2023-02-18T04:34:55;98519.56;;;16.35;68.68
63009;BME280;49099;28.428;-16.488;2023-02-18T04:37:22;98515.91;;;16.31;69.42
63009;BME280;49099;28.428;-16.488;2023-02-18T04:39:49;98519.84;;;16.34;69.29
63009;BME280;49099;28.428;-16.488;2023-02-18T04:42:17;98519.06;;;16.33;69.85
63009;BME280;49099;28.428;-16.488;2023-02-18T04:44:44;98524.63;;;16.37;70.34
63009;BME280;49099;28.428;-16.488;2023-02-18T04:47:13;98527.47;;;16.40;70.33
63009;BME280;49099;28.428;-16.488;2023-02-18T04:49:40;98524.81;;;16.40;71.28
63009;BME280;49099;28.428;-16.488;2023-02-18T04:52:07;98530.16;;;16.40;70.90
63009;BME280;49099;28.428;-16.488;2023-02-18T04:54:34;98530.66;;;16.42;70.91
63009;BME280;49099;28.428;-16.488;2023-02-18T04:57:01;98528.16;;;16.46;70.70
63009;BME280;49099;28.428;-16.488;2023-02-18T04:59:28;98528.47;;;16.44;70.78
63009;BME280;49099;28.428;-16.488;2023-02-18T05:01:56;98533.94;;;16.39;70.96
63009;BME280;49099;28.428;-16.488;2023-02-18T05:04:23;98533.44;;;16.37;70.94
63009;BME280;49099;28.428;-16.488;2023-02-18T05:06:50;98532.97;;;16.35;70.68
63009;BME280;49099;28.428;-16.488;2023-02-18T05:09:17;98538.31;;;16.35;70.69
63009;BME280;49099;28.428;-16.488;2023-02-18T05:11:45;98538.81;;;16.37;70.49
63009;BME280;49099;28.428;-16.488;2023-02-18T05:14:14;98533.94;;;16.39;70.50
63009;BME280;49099;28.428;-16.488;2023-02-18T05:16:41;98536.59;;;16.39;71.09
63009;BME280;49099;28.428;-16.488;2023-02-18T05:19:15;98537.09;;;16.41;70.57
63009;BME280;49099;28.428;-16.488;2023-02-18T05:21:42;98537.09;;;16.41;70.88
63009;BME280;49099;28.428;-16.488;2023-02-18T05:24:10;98528.56;;;16.39;70.66
63009;BME280;49099;28.428;-16.488;2023-02-18T05:26:37;98522.63;;;16.42;70.45
63009;BME280;49099;28.428;-16.488;2023-02-18T05:29:04;98530.66;;;16.42;70.68
63009;BME280;49099;28.428;-16.488;2023-02-18T05:31:31;98523.44;;;16.43;70.46
63009;BME280;49099;28.428;-16.488;2023-02-18T05:33:59;98523.69;;;16.41;70.08
63009;BME280;49099;28.428;-16.488;2023-02-18T05:36:26;98521.34;;;16.40;69.87
63009;BME280;49099;28.428;-16.488;2023-02-18T05:38:53;98519.06;;;16.33;69.51
63009;BME280;49099;28.428;-16.488;2023-02-18T05:41:20;98521.56;;;16.30;69.46
63009;BME280;49099;28.428;-16.488;2023-02-18T05:43:47;98521.88;;;16.28;69.02
63009;BME280;49099;28.428;-16.488;2023-02-18T05:46:33;98526.44;;;16.28;68.83
63009;BME280;49099;28.428;-16.488;2023-02-18T05:49:00;98525.13;;;16.25;69.06
63009;BME280;49099;28.428;-16.488;2023-02-18T05:51:27;98524.03;;;16.26;68.66
63009;BME280;49099;28.428;-16.488;2023-02-18T05:53:55;98511.88;;;16.20;68.75
63009;BME280;49099;28.428;-16.488;2023-02-18T05:56:22;98515.13;;;16.17;68.51
63009;BME280;49099;28.428;-16.488;2023-02-18T05:58:49;98509.59;;;16.13;68.74
63009;BME280;49099;28.428;-16.488;2023-02-18T06:01:16;98505.13;;;16.09;68.67
63009;BME280;49099;28.428;-16.488;2023-02-18T06:03:43;98499.38;;;16.02;68.55
63009;BME280;49099;28.428;-16.488;2023-02-18T06:06:10;98497.72;;;16.06;68.28
63009;BME280;49099;28.428;-16.488;2023-02-18T06:08:37;98494.25;;;16.05;68.08
63009;BME280;49099;28.428;-16.488;2023-02-18T06:11:05;98493.75;;;16.03;68.11
63009;BME280;49099;28.428;-16.488;2023-02-18T06:13:32;98489.47;;;16.02;67.96
63009;BME280;49099;28.428;-16.488;2023-02-18T06:15:59;98480.66;;;16.02;68.07
63009;BME280;49099;28.428;-16.488;2023-02-18T06:18:26;98488.59;;;16.07;67.51
63009;BME280;49099;28.428;-16.488;2023-02-18T06:20:54;98495.81;;;16.06;67.37
63009;BME280;49099;28.428;-16.488;2023-02-18T06:23:21;98494.56;;;16.04;66.86
63009;BME280;49099;28.428;-16.488;2023-02-18T06:25:48;98500.19;;;16.02;67.20
63009;BME280;49099;28.428;-16.488;2023-02-18T06:28:17;98492.94;;;16.03;67.19
63009;BME280;49099;28.428;-16.488;2023-02-18T06:30:45;98499.91;;;16.04;66.36
63009;BME280;49099;28.428;-16.488;2023-02-18T06:33:12;98507.22;;;15.98;66.15
63009;BME280;49099;28.428;-16.488;2023-02-18T06:35:57;98523.19;;;16.03;65.49
63009;BME280;49099;28.428;-16.488;2023-02-18T06:38:25;98524.78;;;16.04;65.43
63009;BME280;49099;28.428;-16.488;2023-02-18T06:40:52;98528.81;;;16.02;65.45
63009;BME280;49099;28.428;-16.488;2023-02-18T06:43:20;98530.41;;;16.03;66.49
63009;BME280;49099;28.428;-16.488;2023-02-18T06:45:47;98532.97;;;16.08;66.53
63009;BME280;49099;28.428;-16.488;2023-02-18T06:48:14;98538.72;;;16.15;67.22
63009;BME280;49099;28.428;-16.488;2023-02-18T06:50:42;98543.47;;;16.18;67.82
63009;BME280;49099;28.428;-16.488;2023-02-18T06:53:10;98545.06;;;16.19;67.73
63009;BME280;49099;28.428;-16.488;2023-02-18T06:55:38;98547.34;;;16.12;67.97
63009;BME280;49099;28.428;-16.488;2023-02-18T06:58:05;98558.16;;;16.07;68.52
63009;BME280;49099;28.428;-16.488;2023-02-18T07:00:32;98559.56;;;16.04;68.47
63009;BME280;49099;28.428;-16.488;2023-02-18T07:02:59;98556.66;;;16.01;68.60
63009;BME280;49099;28.428;-16.488;2023-02-18T07:05:26;98561.53;;;15.99;68.43
63009;BME280;49099;28.428;-16.488;2023-02-18T07:07:54;98556.38;;;15.88;68.77
63009;BME280;49099;28.428;-16.488;2023-02-18T07:10:21;98567.06;;;15.88;68.54
63009;BME280;49099;28.428;-16.488;2023-02-18T07:12:48;98561.31;;;15.81;68.47
63009;BME280;49099;28.428;-16.488;2023-02-18T07:15:15;98570.44;;;15.80;68.62
63009;BME280;49099;28.428;-16.488;2023-02-18T07:17:42;98573.69;;;15.77;68.48
63009;BME280;49099;28.428;-16.488;2023-02-18T07:20:09;98581.41;;;15.79;68.21
63009;BME280;49099;28.428;-16.488;2023-02-18T07:22:37;98583.28;;;15.78;68.14
63009;BME280;49099;28.428;-16.488;2023-02-18T07:25:04;98589.66;;;15.82;67.55
63009;BME280;49099;28.428;-16.488;2023-02-18T07:27:31;98581.94;;;15.81;68.16
63009;BME280;49099;28.428;-16.488;2023-02-18T07:29:59;98586.97;;;15.82;68.36
63009;BME280;49099;28.428;-16.488;2023-02-18T07:32:26;98584.78;;;15.84;68.45
63009;BME280;49099;28.428;-16.488;2023-02-18T07:34:56;98589.16;;;15.80;68.55
63009;BME280;49099;28.428;-16.488;2023-02-18T07:37:23;98591.41;;;15.87;68.77
63009;BME280;49099;28.428;-16.488;2023-02-18T07:39:50;98595.41;;;15.90;68.75
63009;BME280;49099;28.428;-16.488;2023-02-18T07:42:17;98604.53;;;15.88;68.51
63009;BME280;49099;28.428;-16.488;2023-02-18T07:44:44;98593.81;;;15.88;67.55
63009;BME280;49099;28.428;-16.488;2023-02-18T07:47:14;98597.69;;;15.96;67.81
63009;BME280;49099;28.428;-16.488;2023-02-18T07:49:43;98605.91;;;16.00;67.51
63009;BME280;49099;28.428;-16.488;2023-02-18T07:52:10;98604.81;;;16.01;67.38
63009;BME280;49099;28.428;-16.488;2023-02-18T07:54:37;98604.31;;;15.99;67.95
63009;BME280;49099;28.428;-16.488;2023-02-18T07:57:05;98615.63;;;15.96;68.19
63009;BME280;49099;28.428;-16.488;2023-02-18T07:59:32;98617.78;;;15.94;68.02
63009;BME280;49099;28.428;-16.488;2023-02-18T08:01:59;98620.16;;;15.95;67.88
63009;BME280;49099;28.428;-16.488;2023-02-18T08:04:26;98626.31;;;15.96;67.69
63009;BME280;49099;28.428;-16.488;2023-02-18T08:06:53;98629.28;;;15.94;67.65
63009;BME280;49099;28.428;-16.488;2023-02-18T08:09:20;98641.56;;;15.95;67.86
63009;BME280;49099;28.428;-16.488;2023-02-18T08:11:48;98642.38;;;15.96;68.20
63009;BME280;49099;28.428;-16.488;2023-02-18T08:14:15;98645.84;;;15.96;68.37
63009;BME280;49099;28.428;-16.488;2023-02-18T08:16:42;98649.31;;;15.97;68.30
63009;BME280;49099;28.428;-16.488;2023-02-18T08:19:09;98654.56;;;16.02;68.35
63009;BME280;49099;28.428;-16.488;2023-02-18T08:21:36;98651.31;;;16.05;68.25
63009;BME280;49099;28.428;-16.488;2023-02-18T08:24:04;98662.19;;;16.08;68.38
63009;BME280;49099;28.428;-16.488;2023-02-18T08:26:31;98666.97;;;16.11;68.29
63009;BME280;49099;28.428;-16.488;2023-02-18T08:28:58;98665.59;;;16.14;68.38
63009;BME280;49099;28.428;-16.488;2023-02-18T08:31:27;98671.13;;;16.17;68.35
63009;BME280;49099;28.428;-16.488;2023-02-18T08:33:56;98677.78;;;16.20;68.51
63009;BME280;49099;28.428;-16.488;2023-02-18T08:36:25;98682.53;;;16.23;68.83
63009;BME280;49099;28.428;-16.488;2023-02-18T08:38:52;98675.59;;;16.22;68.95
63009;BME280;49099;28.428;-16.488;2023-02-18T08:41:20;98678.47;;;16.26;69.06
63009;BME280;49099;28.428;-16.488;2023-02-18T08:43:47;98682.22;;;16.25;69.15
63009;BME280;49099;28.428;-16.488;2023-02-18T08:46:15;98681.34;;;16.29;68.93
63009;BME280;49099;28.428;-16.488;2023-02-18T08:48:58;98683.25;;;16.29;68.20
63009;BME280;49099;28.428;-16.488;2023-02-18T08:51:25;98677.09;;;16.28;67.67
63009;BME280;49099;28.428;-16.488;2023-02-18T08:53:54;98684.53;;;16.31;67.36
63009;BME280;49099;28.428;-16.488;2023-02-18T08:56:21;98684.44;;;16.36;66.95
63009;BME280;49099;28.428;-16.488;2023-02-18T08:58:48;98687.00;;;16.41;66.26
63009;BME280;49099;28.428;-16.488;2023-02-18T09:01:15;98689.19;;;16.39;65.43
63009;BME280;49099;28.428;-16.488;2023-02-18T09:03:42;98682.25;;;16.38;64.37
63009;BME280;49099;28.428;-16.488;2023-02-18T09:06:10;98686.50;;;16.39;64.27
63009;BME280;49099;28.428;-16.488;2023-02-18T09:08:37;98693.38;;;16.46;63.70
63009;BME280;49099;28.428;-16.488;2023-02-18T09:11:04;98689.81;;;16.50;63.36
63009;BME280;49099;28.428;-16.488;2023-02-18T09:13:32;98695.25;;;16.59;63.38
63009;BME280;49099;28.428;-16.488;2023-02-18T09:16:05;98702.06;;;16.65;63.39
63009;BME280;49099;28.428;-16.488;2023-02-18T09:18:33;98705.19;;;16.72;63.10
63009;BME280;49099;28.428;-16.488;2023-02-18T09:21:03;98712.03;;;16.78;62.60
63009;BME280;49099;28.428;-16.488;2023-02-18T09:23:32;98705.66;;;16.88;62.56
63009;BME280;49099;28.428;-16.488;2023-02-18T09:26:03;98714.31;;;16.98;61.82
63009;BME280;49099;28.428;-16.488;2023-02-18T09:28:31;98721.72;;;17.02;60.30
63009;BME280;49099;28.428;-16.488;2023-02-18T09:31:03;98724.50;;;17.10;59.59
63009;BME280;49099;28.428;-16.488;2023-02-18T09:33:34;98728.88;;;17.20;61.13
63009;BME280;49099;28.428;-16.488;2023-02-18T09:36:02;98734.59;;;17.27;61.33
63009;BME280;49099;28.428;-16.488;2023-02-18T09:38:29;98731.19;;;17.35;61.75
63009;BME280;49099;28.428;-16.488;2023-02-18T09:40:57;98732.09;;;17.44;61.39
63009;BME280;49099;28.428;-16.488;2023-02-18T09:45:58;98748.00;;;17.63;61.17
63009;BME280;49099;28.428;-16.488;2023-02-18T09:48:30;98745.91;;;17.74;61.39
63009;BME280;49099;28.428;-16.488;2023-02-18T09:50:59;98746.41;;;17.76;61.62
63009;BME280;49099;28.428;-16.488;2023-02-18T09:53:26;98747.38;;;17.80;62.17
63009;BME280;49099;28.428;-16.488;2023-02-18T09:55:56;98748.72;;;17.91;62.17
63009;BME280;49099;28.428;-16.488;2023-02-18T09:58:28;98756.22;;;18.03;62.95
63009;BME280;49099;28.428;-16.488;2023-02-18T10:04:02;98767.16;;;18.06;63.42
63009;BME280;49099;28.428;-16.488;2023-02-18T10:06:32;98763.47;;;18.02;64.46
63009;BME280;49099;28.428;-16.488;2023-02-18T10:09:18;98768.34;;;18.00;64.55
63009;BME280;49099;28.428;-16.488;2023-02-18T10:11:56;98767.75;;;18.03;63.62
63009;BME280;49099;28.428;-16.488;2023-02-18T10:14:24;98768.72;;;18.07;63.75
63009;BME280;49099;28.428;-16.488;2023-02-18T10:16:52;98769.81;;;18.06;63.87
63009;BME280;49099;28.428;-16.488;2023-02-18T10:19:31;98768.94;;;17.97;64.09
63009;BME280;49099;28.428;-16.488;2023-02-18T10:22:01;98767.63;;;17.86;63.66
63009;BME280;49099;28.428;-16.488;2023-02-18T10:24:37;98770.72;;;17.79;64.04
63009;BME280;49099;28.428;-16.488;2023-02-18T10:27:07;98770.03;;;17.74;63.34
63009;BME280;49099;28.428;-16.488;2023-02-18T10:29:35;98766.56;;;17.73;63.58
63009;BME280;49099;28.428;-16.488;2023-02-18T10:34:48;98762.88;;;17.69;63.17
63009;BME280;49099;28.428;-16.488;2023-02-18T10:39:59;98764.09;;;17.77;63.51
63009;BME280;49099;28.428;-16.488;2023-02-18T10:48:35;98770.41;;;17.81;64.61
63009;BME280;49099;28.428;-16.488;2023-02-18T10:51:18;98771.41;;;17.85;64.47
63009;BME280;49099;28.428;-16.488;2023-02-18T10:53:49;98760.97;;;17.84;64.02
63009;BME280;49099;28.428;-16.488;2023-02-18T10:59:10;98754.25;;;17.72;64.98
63009;BME280;49099;28.428;-16.488;2023-02-18T11:01:39;98766.88;;;17.72;64.79
63009;BME280;49099;28.428;-16.488;2023-02-18T11:04:20;98760.31;;;17.78;64.54
63009;BME280;49099;28.428;-16.488;2023-02-18T11:06:53;98757.38;;;17.88;64.56
63009;BME280;49099;28.428;-16.488;2023-02-18T11:09:38;98761.03;;;17.92;64.34
63009;BME280;49099;28.428;-16.488;2023-02-18T11:12:14;98758.34;;;17.92;64.24
63009;BME280;49099;28.428;-16.488;2023-02-18T11:14:46;98762.00;;;17.96;64.32
63009;BME280;49099;28.428;-16.488;2023-02-18T11:17:30;98750.91;;;17.89;63.99
63009;BME280;49099;28.428;-16.488;2023-02-18T11:20:00;98761.03;;;17.92;64.22
63009;BME280;49099;28.428;-16.488;2023-02-18T11:22:36;98764.41;;;17.98;64.60
63009;BME280;49099;28.428;-16.488;2023-02-18T11:25:22;98769.69;;;18.12;64.94
63009;BME280;49099;28.428;-16.488;2023-02-18T11:27:54;98771.94;;;18.18;65.22
63009;BME280;49099;28.428;-16.488;2023-02-18T11:35:32;98765.03;;;18.26;64.82
63009;BME280;49099;28.428;-16.488;2023-02-18T11:38:02;98766.03;;;18.30;64.66
63009;BME280;49099;28.428;-16.488;2023-02-18T11:40:33;98761.75;;;18.29;64.72
63009;BME280;49099;28.428;-16.488;2023-02-18T11:43:04;98763.56;;;18.20;64.70
63009;BME280;49099;28.428;-16.488;2023-02-18T11:45:34;98765.31;;;18.16;65.16
63009;BME280;49099;28.428;-16.488;2023-02-18T11:50:40;98763.72;;;18.15;65.93
63009;BME280;49099;28.428;-16.488;2023-02-18T11:53:29;98766.25;;;18.20;64.69
63009;BME280;49099;28.428;-16.488;2023-02-18T11:55:59;98766.63;;;18.27;64.44
63009;BME280;49099;28.428;-16.488;2023-02-18T11:58:42;98770.25;;;18.22;65.28
63009;BME280;49099;28.428;-16.488;2023-02-18T12:01:44;98761.25;;;18.27;64.69
63009;BME280;49099;28.428;-16.488;2023-02-18T12:04:16;98767.16;;;18.37;64.41
63009;BME280;49099;28.428;-16.488;2023-02-18T12:12:47;98765.34;;;18.55;63.08
63009;BME280;49099;28.428;-16.488;2023-02-18T12:15:23;98760.94;;;18.59;63.01
63009;BME280;49099;28.428;-16.488;2023-02-18T12:24:00;98755.81;;;18.72;63.08
63009;BME280;49099;28.428;-16.488;2023-02-18T12:26:27;98757.53;;;18.68;62.74
63009;BME280;49099;28.428;-16.488;2023-02-18T12:36:47;98741.28;;;18.73;62.88
63009;BME280;49099;28.428;-16.488;2023-02-18T12:44:47;98743.66;;;18.83;61.48
63009;BME280;49099;28.428;-16.488;2023-02-18T12:55:57;98729.66;;;19.03;60.18
63009;BME280;49099;28.428;-16.488;2023-02-18T13:01:15;98733.78;;;19.09;60.04
63009;BME280;49099;28.428;-16.488;2023-02-18T13:04:24;98723.38;;;19.16;59.22
63009;BME280;49099;28.428;-16.488;2023-02-18T13:07:12;98719.09;;;19.15;58.43
63009;BME280;49099;28.428;-16.488;2023-02-18T13:18:02;98713.25;;;19.31;59.01
63009;BME280;49099;28.428;-16.488;2023-02-18T13:20:38;98707.25;;;19.34;57.82
63009;BME280;49099;28.428;-16.488;2023-02-18T13:23:19;98692.84;;;19.30;58.16
63009;BME280;49099;28.428;-16.488;2023-02-18T13:25:52;98704.88;;;19.32;58.68
63009;BME280;49099;28.428;-16.488;2023-02-18T13:31:31;98704.06;;;19.14;60.06
63009;BME280;49099;28.428;-16.488;2023-02-18T13:34:17;98699.28;;;18.94;61.17
63009;BME280;49099;28.428;-16.488;2023-02-18T13:37:11;98700.41;;;18.93;60.70
63009;BME280;49099;28.428;-16.488;2023-02-18T13:39:56;98693.28;;;18.97;60.78
63009;BME280;49099;28.428;-16.488;2023-02-18T13:47:45;98691.25;;;19.29;59.80
63009;BME280;49099;28.428;-16.488;2023-02-18T13:58:27;98678.31;;;19.65;58.64
63009;BME280;49099;28.428;-16.488;2023-02-18T14:01:14;98669.44;;;19.65;58.87
63009;BME280;49099;28.428;-16.488;2023-02-18T14:06:19;98665.16;;;19.55;59.59
63009;BME280;49099;28.428;-16.488;2023-02-18T14:08:47;98666.72;;;19.56;58.34
63009;BME280;49099;28.428;-16.488;2023-02-18T14:13:46;98658.19;;;19.54;58.57
63009;BME280;49099;28.428;-16.488;2023-02-18T14:16:15;98664.53;;;19.58;58.19
63009;BME280;49099;28.428;-16.488;2023-02-18T14:23:40;98661.22;;;19.61;57.79
63009;BME280;49099;28.428;-16.488;2023-02-18T14:28:51;98646.03;;;20.12;56.42
63009;BME280;49099;28.428;-16.488;2023-02-18T14:31:29;98647.53;;;20.30;55.86
63009;BME280;49099;28.428;-16.488;2023-02-18T14:36:41;98643.31;;;20.21;56.28
63009;BME280;49099;28.428;-16.488;2023-02-18T14:39:34;98644.75;;;20.18;56.15
63009;BME280;49099;28.428;-16.488;2023-02-18T14:48:06;98633.47;;;19.87;56.32
63009;BME280;49099;28.428;-16.488;2023-02-18T14:50:43;98636.81;;;19.75;57.28
63009;BME280;49099;28.428;-16.488;2023-02-18T14:53:18;98631.28;;;19.71;56.79
63009;BME280;49099;28.428;-16.488;2023-02-18T14:55:52;98632.56;;;19.65;56.65
63009;BME280;49099;28.428;-16.488;2023-02-18T14:58:47;98634.13;;;19.66;57.13
63009;BME280;49099;28.428;-16.488;2023-02-18T15:01:23;98632.84;;;19.81;56.65
63009;BME280;49099;28.428;-16.488;2023-02-18T15:03:53;98623.47;;;19.96;56.43
63009;BME280;49099;28.428;-16.488;2023-02-18T15:06:26;98614.16;;;19.85;56.18
63009;BME280;49099;28.428;-16.488;2023-02-18T15:08:56;98616.34;;;19.91;56.30
63009;BME280;49099;28.428;-16.488;2023-02-18T15:11:47;98607.69;;;20.15;55.49
63009;BME280;49099;28.428;-16.488;2023-02-18T15:14:20;98612.41;;;20.27;55.46
63009;BME280;49099;28.428;-16.488;2023-02-18T15:16:48;98608.31;;;20.21;55.61
63009;BME280;49099;28.428;-16.488;2023-02-18T15:19:20;98608.41;;;20.33;55.19
63009;BME280;49099;28.428;-16.488;2023-02-18T15:21:49;98615.50;;;20.38;54.83
63009;BME280;49099;28.428;-16.488;2023-02-18T15:24:30;98602.38;;;20.36;54.53
63009;BME280;49099;28.428;-16.488;2023-02-18T15:27:00;98598.72;;;20.41;54.45
63009;BME280;49099;28.428;-16.488;2023-02-18T15:29:35;98602.31;;;20.15;55.56
63009;BME280;49099;28.428;-16.488;2023-02-18T15:32:15;98598.88;;;20.06;56.02
63009;BME280;49099;28.428;-16.488;2023-02-18T15:34:43;98607.69;;;20.15;55.41